createdAt,value
2022-08-17T00:10:03.761Z,99645.87
2022-08-17T00:31:49.708Z,99650.79
2022-08-17T00:53:39.540Z,99655.20
2022-08-17T01:15:25.819Z,99654.71
2022-08-17T01:37:12.279Z,99649.59
2022-08-17T01:58:58.721Z,99643.48
2022-08-17T02:20:44.913Z,99649.44
2022-08-17T02:42:34.753Z,99639.89
2022-08-17T03:04:20.617Z,99641.54
2022-08-17T03:26:12.288Z,99655.84
2022-08-17T03:48:18.909Z,99665.30
2022-08-17T04:10:05.182Z,99676.66
2022-08-17T04:31:51.267Z,99691.86
2022-08-17T04:53:37.510Z,99711.94
2022-08-17T05:15:23.465Z,99717.41
2022-08-17T05:37:09.253Z,99724.13
2022-08-17T05:59:06.063Z,99721.59
2022-08-17T06:20:59.939Z,99729.53
2022-08-17T06:43:02.548Z,99738.77
2022-08-17T07:04:52.732Z,99751.12
2022-08-17T07:26:39.641Z,99765.56
2022-08-17T07:48:28.032Z,99776.27
2022-08-17T08:10:17.077Z,99781.84
2022-08-17T08:32:09.148Z,99789.55
2022-08-17T08:54:03.584Z,99786.91
2022-08-17T09:15:56.075Z,99765.96
2022-08-17T09:37:52.566Z,99733.64
2022-08-17T09:59:56.673Z,99715.77
2022-08-17T10:22:14.494Z,99722.02
2022-08-17T10:44:40.358Z,99730.00
2022-08-17T11:06:21.593Z,99743.06
2022-08-17T11:28:18.660Z,99728.98
2022-08-17T11:50:55.401Z,99712.52
2022-08-17T12:12:44.339Z,99697.73
2022-08-17T12:34:36.298Z,99684.80
2022-08-17T12:56:22.333Z,99680.92
2022-08-17T13:18:30.464Z,99667.11
2022-08-17T13:40:37.721Z,99654.66
2022-08-17T14:02:27.653Z,99650.70
2022-08-17T14:24:22.293Z,99647.79
2022-08-17T14:46:08.415Z,99638.96
2022-08-17T15:07:56.022Z,99638.19
2022-08-17T15:29:41.774Z,99643.44
2022-08-17T15:51:29.842Z,99641.02
2022-08-17T16:13:17.371Z,99650.85
2022-08-17T16:35:06.500Z,99660.46
2022-08-17T16:56:52.238Z,99666.98
2022-08-17T17:18:43.820Z,99660.73
2022-08-17T17:40:41.423Z,99661.13
2022-08-17T18:02:52.100Z,99656.84
2022-08-17T18:24:42.810Z,99675.82
2022-08-17T18:46:37.621Z,99681.31
2022-08-17T19:08:36.263Z,99692.80
2022-08-17T19:30:22.481Z,99699.09
2022-08-17T19:52:27.144Z,99720.14
2022-08-17T20:14:18.595Z,99730.29
2022-08-17T20:36:15.646Z,99727.70
2022-08-17T20:58:00.468Z,99714.80
2022-08-17T21:20:11.092Z,99708.16
2022-08-17T21:41:59.376Z,99707.29
2022-08-17T22:03:46.274Z,99719.98
2022-08-17T22:25:33.217Z,99722.70
2022-08-17T22:47:43.019Z,99744.59
2022-08-17T23:09:30.143Z,99759.41
2022-08-17T23:31:20.153Z,99769.85
2022-08-17T23:53:11.665Z,99773.98
